createdAt,value
2023-06-02T00:01:34.616Z,97057.22
2023-06-02T00:04:06.409Z,97055.63
2023-06-02T00:06:34.955Z,97059.97
2023-06-02T00:09:06.243Z,97059.34
2023-06-02T00:11:37.191Z,97060.13
2023-06-02T00:14:08.029Z,97057.75
2023-06-02T00:16:45.842Z,97063.97
2023-06-02T00:19:14.082Z,97059.34
2023-06-02T00:21:47.472Z,97059.81
2023-06-02T00:24:14.623Z,97050.66
2023-06-02T00:26:41.359Z,97057.41
2023-06-02T00:29:08.378Z,97046.84
2023-06-02T00:31:35.883Z,97048.44
2023-06-02T00:34:02.819Z,97038.50
2023-06-02T00:36:29.667Z,97046.50
2023-06-02T00:38:56.478Z,97040.72
2023-06-02T00:41:23.372Z,97037.53
2023-06-02T00:43:50.307Z,97044.41
2023-06-02T00:46:17.043Z,97049.06
2023-06-02T00:48:44.788Z,97047.16
2023-06-02T00:51:12.020Z,97044.75
2023-06-02T00:53:39.478Z,97033.69
2023-06-02T00:56:07.142Z,97037.53
2023-06-02T00:58:39.424Z,97034.81
2023-06-02T01:01:11.674Z,97037.81
2023-06-02T01:03:40.596Z,97032.38
2023-06-02T01:06:08.420Z,97035.09
2023-06-02T01:08:38.598Z,97025.41
2023-06-02T01:11:08.012Z,97027.06
2023-06-02T01:13:36.078Z,97033.59
2023-06-02T01:16:03.325Z,97035.03
2023-06-02T01:18:32.655Z,97028.78
2023-06-02T01:21:00.057Z,97035.66
2023-06-02T01:23:31.174Z,97030.53
2023-06-02T01:25:59.462Z,97031.34
2023-06-02T01:28:27.349Z,97027.47
2023-06-02T01:31:09.448Z,97031.78
2023-06-02T01:33:43.912Z,97023.63
2023-06-02T01:36:11.206Z,97030.00
2023-06-02T01:38:41.125Z,97024.84
2023-06-02T01:41:08.101Z,97014.41
2023-06-02T01:43:36.116Z,97022.75
2023-06-02T01:46:03.652Z,97017.78
2023-06-02T01:48:30.376Z,97016.47
2023-06-02T01:50:57.128Z,97027.34
2023-06-02T01:53:27.643Z,97040.47
2023-06-02T01:55:55.376Z,97030.03
2023-06-02T01:58:22.700Z,97032.06
2023-06-02T02:00:49.418Z,97038.63
2023-06-02T02:03:16.185Z,97029.78
2023-06-02T02:05:43.067Z,97024.47
2023-06-02T02:08:13.138Z,97032.75
2023-06-02T02:10:39.823Z,97026.31
2023-06-02T02:13:06.581Z,97027.75
2023-06-02T02:15:33.172Z,97025.16
2023-06-02T02:18:00.335Z,97022.56
2023-06-02T02:20:27.783Z,97036.25
2023-06-02T02:22:54.584Z,97032.56
2023-06-02T02:25:21.221Z,97026.72
2023-06-02T02:27:48.309Z,97021.63
2023-06-02T02:30:15.406Z,97021.28
2023-06-02T02:32:46.222Z,97025.75
2023-06-02T02:35:13.181Z,97023.75
2023-06-02T02:37:46.518Z,97031.91
2023-06-02T02:40:17.438Z,97027.09
2023-06-02T02:42:44.055Z,97029.13
2023-06-02T02:45:10.938Z,97030.53
2023-06-02T02:47:37.957Z,97032.44
2023-06-02T02:50:04.785Z,97031.94
2023-06-02T02:52:31.517Z,97031.72
2023-06-02T02:54:58.395Z,97028.50
2023-06-02T02:57:25.221Z,97033.63
2023-06-02T02:59:52.168Z,97020.38
2023-06-02T03:02:19.489Z,97030.13
2023-06-02T03:04:47.195Z,97030.13
2023-06-02T03:07:14.396Z,97020.84
2023-06-02T03:09:42.136Z,97028.50
2023-06-02T03:12:09.193Z,97030.72
2023-06-02T03:14:35.901Z,97035.56
2023-06-02T03:17:03.831Z,97032.84
2023-06-02T03:19:30.868Z,97031.72
2023-06-02T03:21:57.791Z,97029.63
2023-06-02T03:24:25.454Z,97034.44
2023-06-02T03:26:56.603Z,97045.84
2023-06-02T03:29:23.948Z,97043.13
2023-06-02T03:31:53.778Z,97039.28
2023-06-02T03:34:21.623Z,97034.38
2023-06-02T03:36:49.695Z,97035.97
2023-06-02T03:39:16.736Z,97031.13
2023-06-02T03:41:43.552Z,97030.53
2023-06-02T03:44:10.801Z,97031.13
2023-06-02T03:46:37.791Z,97032.94
2023-06-02T03:49:04.594Z,97045.63
2023-06-02T03:51:31.308Z,97045.63
2023-06-02T03:53:58.209Z,97037.97
2023-06-02T03:56:24.796Z,97041.97
2023-06-02T03:58:51.407Z,97042.66
2023-06-02T04:01:19.096Z,97034.69
2023-06-02T04:03:46.211Z,97041.44
2023-06-02T04:06:13.836Z,97040.50
2023-06-02T04:08:41.031Z,97043.94
2023-06-02T04:11:08.442Z,97037.56
2023-06-02T04:13:35.143Z,97040.97
2023-06-02T04:16:02.422Z,97042.44
2023-06-02T04:18:32.179Z,97049.38
2023-06-02T04:20:59.683Z,97041.41
2023-06-02T04:23:26.947Z,97043.19
2023-06-02T04:25:53.995Z,97034.28
2023-06-02T04:28:21.045Z,97021.81
2023-06-02T04:30:50.080Z,97033.25
2023-06-02T04:33:16.835Z,97034.72
2023-06-02T04:35:43.573Z,97038.91
2023-06-02T04:38:10.623Z,97044.69
2023-06-02T04:40:38.873Z,97039.78
2023-06-02T04:43:05.972Z,97035.63
2023-06-02T04:45:33.189Z,97031.16
2023-06-02T04:48:00.182Z,97030.41
2023-06-02T04:50:26.954Z,97028.16
2023-06-02T04:52:53.959Z,97023.09
2023-06-02T04:55:20.860Z,97020.72
2023-06-02T04:57:47.833Z,97017.88
2023-06-02T05:00:15.558Z,97022.03
2023-06-02T05:02:42.285Z,97030.53
2023-06-02T05:05:09.296Z,97022.72
2023-06-02T05:07:36.591Z,97033.66
2023-06-02T05:10:03.319Z,97039.75
2023-06-02T05:12:30.237Z,97042.81
2023-06-02T05:14:57.133Z,97043.16
2023-06-02T05:17:25.283Z,97033.22
2023-06-02T05:19:54.378Z,97050.06
2023-06-02T05:22:22.169Z,97051.22
2023-06-02T05:24:49.014Z,97050.41
2023-06-02T05:27:15.807Z,97049.63
2023-06-02T05:29:42.517Z,97052.34
2023-06-02T05:32:09.583Z,97047.72
2023-06-02T05:34:44.274Z,97054.31
2023-06-02T05:37:11.060Z,97053.00
2023-06-02T05:39:37.843Z,97044.69
2023-06-02T05:42:04.802Z,97053.34
2023-06-02T05:44:31.859Z,97052.84
2023-06-02T05:46:58.506Z,97050.91
2023-06-02T05:49:25.596Z,97045.75
2023-06-02T05:51:52.227Z,97050.06
2023-06-02T05:54:19.398Z,97052.78
2023-06-02T05:56:46.456Z,97054.81
2023-06-02T05:59:13.246Z,97058.94
2023-06-02T06:01:39.918Z,97055.69
2023-06-02T06:04:06.902Z,97046.78
2023-06-02T06:06:33.631Z,97057.72
2023-06-02T06:09:00.270Z,97056.31
2023-06-02T06:11:27.505Z,97049.34
2023-06-02T06:13:54.316Z,97050.19
2023-06-02T06:16:21.277Z,97051.19
2023-06-02T06:18:48.421Z,97055.72
2023-06-02T06:21:15.411Z,97054.44
2023-06-02T06:23:42.273Z,97052.97
2023-06-02T06:26:09.474Z,97045.41
2023-06-02T06:28:36.315Z,97038.31
2023-06-02T06:31:03.209Z,97046.88
2023-06-02T06:33:31.444Z,97041.28
2023-06-02T06:35:58.273Z,97043.66
2023-06-02T06:38:24.950Z,97040.66
2023-06-02T06:40:52.255Z,97052.63
2023-06-02T06:45:48.712Z,97045.16
2023-06-02T06:48:15.678Z,97052.03
2023-06-02T06:50:42.478Z,97043.69
2023-06-02T06:53:10.034Z,97042.97
2023-06-02T06:55:37.178Z,97042.25
2023-06-02T06:58:03.892Z,97040.38
2023-06-02T07:00:31.605Z,97029.81
2023-06-02T07:02:58.674Z,97034.34
2023-06-02T07:05:26.143Z,97033.63
2023-06-02T07:07:52.928Z,97028.19
2023-06-02T07:10:19.970Z,97025.88
2023-06-02T07:12:46.654Z,97031.72
2023-06-02T07:15:13.443Z,97035.84
2023-06-02T07:17:42.025Z,97028.47
2023-06-02T07:20:13.110Z,97022.28
2023-06-02T07:22:40.849Z,97029.28
2023-06-02T07:25:08.848Z,97021.72
2023-06-02T07:27:36.074Z,97028.72
2023-06-02T07:30:03.743Z,97029.72
2023-06-02T07:32:30.917Z,97020.00
2023-06-02T07:34:58.043Z,97018.94
2023-06-02T07:37:24.681Z,97023.88
2023-06-02T07:39:51.521Z,97026.78
2023-06-02T07:42:20.449Z,97018.63
2023-06-02T07:44:47.146Z,97024.28
2023-06-02T07:47:14.132Z,97017.78
2023-06-02T07:49:41.053Z,97024.69
2023-06-02T07:52:07.668Z,97028.78
2023-06-02T07:54:34.910Z,97026.41
2023-06-02T07:57:01.569Z,97011.50
2023-06-02T07:59:28.320Z,97017.50
2023-06-02T08:01:55.455Z,97011.28
2023-06-02T08:04:27.224Z,97016.06
2023-06-02T08:06:56.591Z,97003.78
2023-06-02T08:09:24.068Z,97004.72
2023-06-02T08:11:52.023Z,97000.84
2023-06-02T08:14:19.239Z,97006.03
2023-06-02T08:16:57.657Z,97002.56
2023-06-02T08:19:26.128Z,97004.22
2023-06-02T08:21:53.135Z,96999.13
2023-06-02T08:24:22.041Z,96991.22
2023-06-02T08:26:49.900Z,96990.94
2023-06-02T08:29:17.151Z,96986.19
2023-06-02T08:31:44.246Z,96981.44
2023-06-02T08:34:12.101Z,96981.47
2023-06-02T08:36:39.169Z,96985.88
2023-06-02T08:39:09.125Z,96988.69
2023-06-02T08:41:39.986Z,96980.38
2023-06-02T08:44:07.203Z,96982.00
2023-06-02T08:46:34.257Z,96980.03
2023-06-02T08:49:02.406Z,96976.88
2023-06-02T08:51:32.890Z,96960.22
2023-06-02T08:54:00.507Z,96966.94
2023-06-02T08:56:27.525Z,96964.16
2023-06-02T08:58:54.244Z,96970.13
2023-06-02T09:01:20.933Z,96968.56
2023-06-02T09:03:49.523Z,96966.56
2023-06-02T09:06:29.927Z,96967.38
2023-06-02T09:09:01.780Z,96962.97
2023-06-02T09:11:30.490Z,96961.41
2023-06-02T09:13:57.332Z,96954.28
2023-06-02T09:16:35.315Z,96943.97
2023-06-02T09:19:02.178Z,96938.81
2023-06-02T09:21:31.264Z,96942.75
2023-06-02T09:24:12.280Z,96941.59
2023-06-02T09:26:49.849Z,96933.28
2023-06-02T09:29:17.168Z,96930.47
2023-06-02T09:31:45.164Z,96934.06
2023-06-02T09:34:16.649Z,96928.88
2023-06-02T09:36:45.174Z,96923.75
2023-06-02T09:39:12.253Z,96926.91
2023-06-02T09:41:40.381Z,96927.69
2023-06-02T09:44:15.082Z,96926.91
2023-06-02T09:46:44.519Z,96924.94
2023-06-02T09:49:12.418Z,96916.63
2023-06-02T09:51:40.137Z,96898.78
2023-06-02T09:54:09.396Z,96910.25
2023-06-02T09:56:40.096Z,96897.97
2023-06-02T09:59:07.965Z,96903.88
2023-06-02T10:01:36.290Z,96897.13
2023-06-02T10:04:04.369Z,96901.88
2023-06-02T10:06:46.288Z,96889.19
2023-06-02T10:09:59.161Z,96890.31
2023-06-02T10:12:34.176Z,96895.00
2023-06-02T10:15:32.642Z,96889.81
2023-06-02T10:18:33.185Z,96880.59
2023-06-02T10:21:14.706Z,96874.19
2023-06-02T10:23:49.215Z,96870.88
2023-06-02T10:26:36.966Z,96860.91
2023-06-02T10:29:06.454Z,96868.09
2023-06-02T10:31:33.207Z,96865.41
2023-06-02T10:34:02.083Z,96863.53
2023-06-02T10:36:29.904Z,96860.78
2023-06-02T10:38:57.163Z,96846.47
2023-06-02T10:42:01.548Z,96848.69
2023-06-02T10:44:32.473Z,96848.94
2023-06-02T10:47:21.687Z,96838.88
2023-06-02T10:49:57.090Z,96833.97
2023-06-02T10:52:24.212Z,96835.47
2023-06-02T10:55:09.339Z,96846.63
2023-06-02T10:57:56.221Z,96831.00
2023-06-02T11:00:47.126Z,96837.59
2023-06-02T11:03:17.045Z,96834.16
2023-06-02T11:05:48.361Z,96821.91
2023-06-02T11:08:23.332Z,96830.69
2023-06-02T11:10:59.968Z,96817.63
2023-06-02T11:13:28.010Z,96816.78
2023-06-02T11:15:54.714Z,96815.13
2023-06-02T11:18:24.237Z,96820.25
2023-06-02T11:20:52.448Z,96824.63
2023-06-02T11:23:20.160Z,96812.72
2023-06-02T11:26:11.698Z,96817.06
2023-06-02T11:28:38.405Z,96813.91
2023-06-02T11:31:19.499Z,96814.78
2023-06-02T11:33:52.310Z,96808.44
2023-06-02T11:36:30.221Z,96805.28
2023-06-02T11:39:04.266Z,96814.78
2023-06-02T11:41:31.086Z,96812.03
2023-06-02T11:44:08.966Z,96800.22
2023-06-02T11:46:36.008Z,96804.25
2023-06-02T11:49:03.392Z,96804.31
2023-06-02T11:51:31.852Z,96800.34
2023-06-02T11:54:00.392Z,96799.13
2023-06-02T11:56:27.888Z,96803.56
2023-06-02T11:58:54.879Z,96798.41
2023-06-02T12:01:23.108Z,96798.38
2023-06-02T12:04:03.817Z,96788.81
2023-06-02T12:06:32.110Z,96780.13
2023-06-02T12:09:19.585Z,96787.28
2023-06-02T12:11:48.388Z,96794.41
2023-06-02T12:14:15.953Z,96797.63
2023-06-02T12:16:45.184Z,96784.97
2023-06-02T12:19:17.034Z,96781.00
2023-06-02T12:21:47.702Z,96786.22
2023-06-02T12:24:40.664Z,96783.44
2023-06-02T12:27:09.023Z,96783.44
2023-06-02T12:29:37.305Z,96791.72
2023-06-02T12:32:06.746Z,96791.28
2023-06-02T12:34:33.992Z,96781.72
2023-06-02T12:37:02.346Z,96780.88
2023-06-02T12:39:28.976Z,96776.41
2023-06-02T12:41:56.001Z,96771.66
2023-06-02T12:44:22.592Z,96772.00
2023-06-02T12:46:49.792Z,96778.72
2023-06-02T12:49:16.917Z,96774.38
2023-06-02T12:51:44.094Z,96764.84
2023-06-02T12:54:10.817Z,96767.63
2023-06-02T12:56:41.915Z,96756.13
2023-06-02T12:59:13.104Z,96770.00
2023-06-02T13:01:40.696Z,96765.69
2023-06-02T13:04:08.584Z,96766.50
2023-06-02T13:06:37.128Z,96760.16
2023-06-02T13:09:04.603Z,96768.09
2023-06-02T13:11:31.902Z,96770.13
2023-06-02T13:13:59.845Z,96762.63
2023-06-02T13:16:27.659Z,96753.53
2023-06-02T13:18:54.575Z,96758.69
2023-06-02T13:21:21.350Z,96762.66
2023-06-02T13:23:55.479Z,96767.44
2023-06-02T13:26:22.465Z,96770.63
2023-06-02T13:28:49.267Z,96763.91
2023-06-02T13:31:16.490Z,96754.03
2023-06-02T13:33:43.143Z,96752.88
2023-06-02T13:36:09.782Z,96757.63
2023-06-02T13:38:36.647Z,96752.47
2023-06-02T13:41:03.794Z,96759.97
2023-06-02T13:43:30.626Z,96746.13
2023-06-02T13:45:57.520Z,96752.47
2023-06-02T13:48:24.267Z,96742.97
2023-06-02T13:50:51.054Z,96743.38
2023-06-02T13:53:18.020Z,96744.94
2023-06-02T13:55:44.830Z,96742.19
2023-06-02T13:58:11.521Z,96752.09
2023-06-02T14:00:38.405Z,96751.28
2023-06-02T14:03:05.468Z,96742.16
2023-06-02T14:05:32.325Z,96754.81
2023-06-02T14:07:59.396Z,96758.00
2023-06-02T14:10:26.606Z,96746.53
2023-06-02T14:12:53.404Z,96746.56
2023-06-02T14:15:20.658Z,96746.16
2023-06-02T14:17:47.410Z,96737.09
2023-06-02T14:20:14.159Z,96738.66
2023-06-02T14:22:43.280Z,96736.69
2023-06-02T14:25:10.579Z,96739.09
2023-06-02T14:27:37.256Z,96739.09
2023-06-02T14:30:04.759Z,96729.56
2023-06-02T14:32:31.447Z,96735.13
2023-06-02T14:34:58.152Z,96737.09
2023-06-02T14:37:25.368Z,96732.72
2023-06-02T14:39:52.031Z,96718.88
2023-06-02T14:42:18.629Z,96718.88
2023-06-02T14:44:45.570Z,96727.56
2023-06-02T14:47:12.311Z,96733.50
2023-06-02T14:49:40.736Z,96741.41
2023-06-02T14:52:09.683Z,96734.72
2023-06-02T14:54:36.345Z,96735.50
2023-06-02T14:57:06.584Z,96743.03
2023-06-02T14:59:33.603Z,96749.38
2023-06-02T15:02:00.274Z,96739.84
2023-06-02T15:04:26.988Z,96738.28
2023-06-02T15:06:54.000Z,96743.84
2023-06-02T15:09:20.651Z,96742.25
2023-06-02T15:11:47.351Z,96735.13
2023-06-02T15:14:14.360Z,96742.28
2023-06-02T15:16:41.094Z,96734.34
2023-06-02T15:19:09.582Z,96740.69
2023-06-02T15:21:37.275Z,96741.06
2023-06-02T15:24:04.469Z,96735.53
2023-06-02T15:26:31.645Z,96743.03
2023-06-02T15:28:58.739Z,96738.25
2023-06-02T15:31:25.471Z,96750.91
2023-06-02T15:33:52.116Z,96753.19
2023-06-02T15:36:21.065Z,96754.22
2023-06-02T15:38:47.696Z,96746.59
2023-06-02T15:41:14.303Z,96751.91
2023-06-02T15:43:42.459Z,96743.38
2023-06-02T15:46:09.237Z,96743.19
2023-06-02T15:48:37.046Z,96745.69
2023-06-02T15:51:06.041Z,96750.47
2023-06-02T15:53:32.646Z,96751.22
2023-06-02T15:55:59.238Z,96753.88
2023-06-02T15:58:26.296Z,96758.91
2023-06-02T16:00:52.906Z,96767.50
2023-06-02T16:03:19.525Z,96782.06
2023-06-02T16:05:46.483Z,96787.84
2023-06-02T16:08:13.114Z,96755.75
2023-06-02T16:10:39.801Z,96756.63
2023-06-02T16:13:06.777Z,96747.38
2023-06-02T16:15:33.675Z,96751.34
2023-06-02T16:18:00.523Z,96738.00
2023-06-02T16:20:27.509Z,96738.94
2023-06-02T16:22:54.080Z,96735.00
2023-06-02T16:25:22.283Z,96729.75
2023-06-02T16:27:50.221Z,96733.16
2023-06-02T16:30:16.953Z,96725.63
2023-06-02T16:32:43.758Z,96729.94
2023-06-02T16:35:11.512Z,96716.13
2023-06-02T16:37:38.134Z,96726.91
2023-06-02T16:40:05.381Z,96740.19
2023-06-02T16:42:33.668Z,96734.25
2023-06-02T16:45:00.805Z,96741.88
2023-06-02T16:47:27.372Z,96723.53
2023-06-02T16:49:54.176Z,96739.03
2023-06-02T16:52:20.811Z,96747.25
2023-06-02T16:54:47.399Z,96757.44
2023-06-02T16:57:14.349Z,96750.00
2023-06-02T16:59:40.973Z,96750.78
2023-06-02T17:02:07.745Z,96766.66
2023-06-02T17:04:34.620Z,96768.50
2023-06-02T17:07:01.316Z,96771.25
2023-06-02T17:09:27.943Z,96769.28
2023-06-02T17:11:54.896Z,96761.84
2023-06-02T17:14:21.542Z,96767.50
2023-06-02T17:16:48.208Z,96764.00
2023-06-02T17:19:16.016Z,96771.16
2023-06-02T17:21:42.938Z,96761.50
2023-06-02T17:24:11.195Z,96766.16
2023-06-02T17:26:38.847Z,96764.13
2023-06-02T17:29:05.713Z,96768.91
2023-06-02T17:31:32.413Z,96778.38
2023-06-02T17:33:59.278Z,96775.63
2023-06-02T17:36:26.067Z,96783.16
2023-06-02T17:38:52.673Z,96784.41
2023-06-02T17:41:19.730Z,96779.63
2023-06-02T17:43:51.632Z,96779.63
2023-06-02T17:46:18.419Z,96779.16
2023-06-02T17:48:46.145Z,96766.41
2023-06-02T17:51:12.982Z,96781.47
2023-06-02T17:53:41.396Z,96779.41
2023-06-02T17:56:08.416Z,96789.25
2023-06-02T17:58:35.178Z,96783.41
2023-06-02T18:01:01.908Z,96787.63
2023-06-02T18:03:28.902Z,96793.94
2023-06-02T18:05:56.096Z,96789.16
2023-06-02T18:08:22.704Z,96798.59
2023-06-02T18:10:49.993Z,96793.38
2023-06-02T18:13:16.666Z,96798.75
2023-06-02T18:15:43.469Z,96802.63
2023-06-02T18:18:10.918Z,96805.69
2023-06-02T18:20:37.700Z,96803.31
2023-06-02T18:23:07.557Z,96806.31
2023-06-02T18:25:34.580Z,96816.53
2023-06-02T18:28:01.481Z,96827.41
2023-06-02T18:30:28.398Z,96839.97
2023-06-02T18:32:55.343Z,96832.69
2023-06-02T18:35:22.022Z,96837.72
2023-06-02T18:37:48.769Z,96853.00
2023-06-02T18:40:15.597Z,96850.47
2023-06-02T18:42:42.596Z,96843.28
2023-06-02T18:45:09.448Z,96851.50
2023-06-02T18:47:37.150Z,96851.50
2023-06-02T18:50:04.534Z,96841.34
2023-06-02T18:52:32.577Z,96853.31
2023-06-02T18:54:59.653Z,96854.13
2023-06-02T18:57:26.535Z,96852.97
2023-06-02T18:59:53.621Z,96840.78
2023-06-02T19:02:20.856Z,96847.38
2023-06-02T19:04:47.676Z,96844.66
2023-06-02T19:07:15.118Z,96850.47
2023-06-02T19:09:41.959Z,96845.31
2023-06-02T19:12:10.697Z,96841.47
2023-06-02T19:14:38.795Z,96847.75
2023-06-02T19:17:06.245Z,96848.06
2023-06-02T19:19:34.428Z,96845.69
2023-06-02T19:22:01.969Z,96829.50
2023-06-02T19:24:29.071Z,96821.25
2023-06-02T19:26:55.860Z,96822.75
2023-06-02T19:29:22.814Z,96824.66
2023-06-02T19:31:49.943Z,96813.00
2023-06-02T19:34:16.831Z,96822.13
2023-06-02T19:36:43.530Z,96827.81
2023-06-02T19:39:10.734Z,96820.72
2023-06-02T19:41:37.418Z,96828.25
2023-06-02T19:44:04.747Z,96823.69
2023-06-02T19:46:31.912Z,96831.94
2023-06-02T19:48:58.687Z,96833.63
2023-06-02T19:51:25.457Z,96837.50
2023-06-02T19:53:52.230Z,96830.06
2023-06-02T19:56:18.905Z,96825.63
2023-06-02T19:58:45.566Z,96822.28
2023-06-02T20:01:12.521Z,96829.03
2023-06-02T20:03:39.428Z,96838.69
2023-06-02T20:06:08.364Z,96848.03
2023-06-02T20:08:35.819Z,96844.16
2023-06-02T20:11:03.704Z,96838.34
2023-06-02T20:13:30.827Z,96834.81
2023-06-02T20:15:58.023Z,96836.75
2023-06-02T20:18:24.917Z,96845.06
2023-06-02T20:20:51.570Z,96839.34
2023-06-02T20:23:18.574Z,96838.41
2023-06-02T20:25:45.575Z,96849.03
2023-06-02T20:28:12.295Z,96853.53
2023-06-02T20:30:39.950Z,96850.38
2023-06-02T20:33:06.688Z,96856.16
2023-06-02T20:35:34.046Z,96851.69
2023-06-02T20:38:01.291Z,96859.44
2023-06-02T20:40:27.868Z,96857.22
2023-06-02T20:42:54.469Z,96850.66
2023-06-02T20:45:22.024Z,96860.97
2023-06-02T20:47:48.979Z,96861.63
2023-06-02T20:50:15.825Z,96867.91
2023-06-02T20:52:42.914Z,96857.66
2023-06-02T20:55:09.907Z,96869.25
2023-06-02T20:57:36.493Z,96867.44
2023-06-02T21:00:06.351Z,96865.38
2023-06-02T21:02:33.910Z,96876.56
2023-06-02T21:05:00.953Z,96880.09
2023-06-02T21:07:29.637Z,96870.66
2023-06-02T21:09:56.487Z,96881.59
2023-06-02T21:12:23.199Z,96867.78
2023-06-02T21:14:50.105Z,96886.56
2023-06-02T21:17:16.833Z,96880.97
2023-06-02T21:19:43.585Z,96881.75
2023-06-02T21:22:10.392Z,96894.28
2023-06-02T21:24:40.697Z,96894.28
2023-06-02T21:27:07.786Z,96891.53
2023-06-02T21:29:35.152Z,96891.53
2023-06-02T21:32:01.828Z,96897.00
2023-06-02T21:34:28.528Z,96897.00
2023-06-02T21:36:55.516Z,96905.19
2023-06-02T21:39:22.141Z,96893.34
2023-06-02T21:41:48.945Z,96892.53
2023-06-02T21:44:16.259Z,96892.22
2023-06-02T21:46:43.698Z,96882.28
2023-06-02T21:49:11.184Z,96893.16
2023-06-02T21:51:38.288Z,96889.94
2023-06-02T21:54:05.066Z,96900.56
2023-06-02T21:56:35.232Z,96895.91
2023-06-02T21:59:04.851Z,96889.00
2023-06-02T22:01:32.218Z,96894.97
2023-06-02T22:03:59.348Z,96885.47
2023-06-02T22:06:26.492Z,96905.19
2023-06-02T22:08:53.152Z,96902.00
2023-06-02T22:11:26.938Z,96902.81
2023-06-02T22:13:54.042Z,96892.69
2023-06-02T22:16:21.095Z,96891.22
2023-06-02T22:18:47.814Z,96889.50
2023-06-02T22:21:15.363Z,96892.03
2023-06-02T22:23:43.143Z,96885.41
2023-06-02T22:26:10.252Z,96895.69
2023-06-02T22:28:37.794Z,96886.56
2023-06-02T22:31:05.009Z,96888.50
2023-06-02T22:33:31.916Z,96886.06
2023-06-02T22:35:58.687Z,96890.16
2023-06-02T22:38:25.385Z,96883.75
2023-06-02T22:40:52.003Z,96906.53
2023-06-02T22:43:18.918Z,96922.78
2023-06-02T22:45:45.608Z,96904.97
2023-06-02T22:48:12.492Z,96908.03
2023-06-02T22:50:39.425Z,96904.38
2023-06-02T22:53:06.298Z,96898.44
2023-06-02T22:55:32.871Z,96911.44
2023-06-02T22:57:59.870Z,96910.63
2023-06-02T23:00:26.543Z,96916.41
2023-06-02T23:02:53.302Z,96913.53
2023-06-02T23:05:20.438Z,96913.69
2023-06-02T23:07:47.909Z,96923.94
2023-06-02T23:10:16.129Z,96928.75
2023-06-02T23:12:44.492Z,96929.69
2023-06-02T23:15:11.678Z,96931.28
2023-06-02T23:17:40.417Z,96935.44
2023-06-02T23:20:09.725Z,96930.78
2023-06-02T23:22:36.332Z,96937.84
2023-06-02T23:25:03.864Z,96937.97
2023-06-02T23:27:31.617Z,96940.41
2023-06-02T23:29:58.765Z,96931.84
2023-06-02T23:32:25.576Z,96939.25
2023-06-02T23:34:52.441Z,96933.34
2023-06-02T23:37:19.052Z,96932.72
2023-06-02T23:39:46.972Z,96918.31
2023-06-02T23:42:13.738Z,96926.81
2023-06-02T23:44:40.396Z,96920.28
2023-06-02T23:47:07.205Z,96913.06
2023-06-02T23:49:34.040Z,96901.53
2023-06-02T23:52:00.705Z,96893.19
2023-06-02T23:54:27.375Z,96898.19
2023-06-02T23:56:54.204Z,96904.91
2023-06-02T23:59:20.945Z,96903.31
